Time;durP1;ratioP1;P1;durP2;ratioP2;P2;SDS_P1;SDS_P2;PMS_P1;PMS_P2;Temp;Humidity;BMP_temperature;BMP_pressure;BME280_temperature;BME280_humidity;BME280_pressure;Samples;Min_cycle;Max_cycle;Signal;HPM_P1;HPM_P2
2021/09/27 00:00:15;;;;;;;22.40;16.88;;;;;;;;;;4972728;28;20050;-70
2021/09/27 00:02:42;;;;;;;22.73;17.17;;;;;;;;;;4955356;28;20202;-70
2021/09/27 00:05:12;;;;;;;23.40;17.90;;;;;;;;;;4972624;28;20531;-70
2021/09/27 00:07:40;;;;;;;24.80;17.65;;;;;;;;;;4972534;28;20117;-70
2021/09/27 00:10:07;;;;;;;26.17;18.70;;;;;;;;;;4975520;28;20074;-70
2021/09/27 00:12:37;;;;;;;23.00;18.00;;;;;;;;;;4975943;28;20129;-70
2021/09/27 00:15:07;;;;;;;22.17;17.67;;;;;;;;;;4975658;28;20113;-70
2021/09/27 00:17:34;;;;;;;26.33;18.17;;;;;;;;;;4975896;28;20073;-70
2021/09/27 00:20:00;;;;;;;24.95;18.00;;;;;;;;;;4975863;28;20050;-70
2021/09/27 00:22:27;;;;;;;21.98;16.65;;;;;;;;;;4975913;28;20051;-70
2021/09/27 00:24:54;;;;;;;22.75;18.17;;;;;;;;;;4975880;28;20130;-70
2021/09/27 00:27:24;;;;;;;23.23;17.33;;;;;;;;;;4975775;28;20109;-70
2021/09/27 00:29:51;;;;;;;22.20;17.15;;;;;;;;;;4974733;28;20051;-70
2021/09/27 00:32:18;;;;;;;23.75;17.90;;;;;;;;;;4976550;28;20105;-70
2021/09/27 00:34:44;;;;;;;22.08;17.13;;;;;;;;;;4993479;28;20445;-70
2021/09/27 00:37:11;;;;;;;21.90;17.10;;;;;;;;;;4994198;28;20046;-70
2021/09/27 00:39:38;;;;;;;24.70;17.95;;;;;;;;;;4990294;28;20529;-70
2021/09/27 00:42:05;;;;;;;22.85;18.70;;;;;;;;;;4994403;28;20490;-70
2021/09/27 00:44:32;;;;;;;25.40;19.60;;;;;;;;;;4994322;28;20100;-70
2021/09/27 00:46:59;;;;;;;23.98;18.05;;;;;;;;;;4994287;28;20046;-70
2021/09/27 00:49:25;;;;;;;26.48;19.00;;;;;;;;;;4994700;28;20054;-70
2021/09/27 00:51:52;;;;;;;29.42;19.65;;;;;;;;;;4993834;28;20093;-70
2021/09/27 00:54:27;;;;;;;25.58;18.08;;;;;;;;;;4967180;28;20053;-70
2021/09/27 00:57:03;;;;;;;25.75;19.38;;;;;;;;;;4973306;28;20089;-70
2021/09/27 00:59:29;;;;;;;24.55;18.83;;;;;;;;;;4963945;28;20070;-70
2021/09/27 01:01:56;;;;;;;29.83;20.17;;;;;;;;;;4972465;28;20054;-70
2021/09/27 01:04:24;;;;;;;26.55;18.73;;;;;;;;;;4993496;28;20046;-70
2021/09/27 01:07:11;;;;;;;27.95;19.13;;;;;;;;;;4993407;28;20137;-70
2021/09/27 01:10:03;;;;;;;27.73;18.77;;;;;;;;;;4966136;28;20050;-70
2021/09/27 01:12:48;;;;;;;25.42;18.13;;;;;;;;;;4977290;28;20097;-70
2021/09/27 01:16:00;;;;;;;25.30;18.23;;;;;;;;;;4993070;28;20050;-70
2021/09/27 01:18:35;;;;;;;23.33;17.80;;;;;;;;;;4976034;28;20050;-70
2021/09/27 01:21:21;;;;;;;24.40;18.63;;;;;;;;;;4992735;28;20046;-70
2021/09/27 01:24:24;;;;;;;24.55;17.75;;;;;;;;;;4975632;28;20498;-71
2021/09/27 01:27:03;;;;;;;27.45;18.40;;;;;;;;;;4968203;28;20100;-70
2021/09/27 01:29:55;;;;;;;26.48;18.23;;;;;;;;;;4980938;28;20058;-70
2021/09/27 01:32:21;;;;;;;27.20;17.58;;;;;;;;;;4993061;28;20105;-69
2021/09/27 01:34:51;;;;;;;27.42;18.60;;;;;;;;;;4993690;28;20493;-70
2021/09/27 01:37:29;;;;;;;25.48;17.15;;;;;;;;;;4993613;28;20387;-70
2021/09/27 01:40:16;;;;;;;23.83;18.25;;;;;;;;;;4993803;28;20046;-70
2021/09/27 01:42:50;;;;;;;22.98;17.42;;;;;;;;;;4993854;28;20104;-70
2021/09/27 01:45:31;;;;;;;25.13;18.65;;;;;;;;;;4961385;28;20054;-70
2021/09/27 01:48:11;;;;;;;24.80;17.75;;;;;;;;;;4977235;28;20056;-70
2021/09/27 01:50:42;;;;;;;22.85;17.52;;;;;;;;;;4993998;28;20560;-70
2021/09/27 01:53:25;;;;;;;25.55;17.60;;;;;;;;;;4977028;28;20109;-70
2021/09/27 01:55:57;;;;;;;27.38;16.95;;;;;;;;;;4976632;28;20402;-70
2021/09/27 01:58:34;;;;;;;26.20;17.55;;;;;;;;;;4993402;28;20100;-70
2021/09/27 02:01:05;;;;;;;27.40;18.45;;;;;;;;;;4976663;28;20061;-69
2021/09/27 02:03:34;;;;;;;24.15;17.38;;;;;;;;;;4960372;28;20580;-70
2021/09/27 02:06:27;;;;;;;24.15;18.70;;;;;;;;;;4993335;28;20054;-70
2021/09/27 02:09:32;;;;;;;21.27;16.38;;;;;;;;;;4963245;28;20050;-69
2021/09/27 02:12:08;;;;;;;22.17;17.00;;;;;;;;;;4962424;28;20116;-70
2021/09/27 02:14:52;;;;;;;24.00;16.88;;;;;;;;;;4960519;28;20046;-70
2021/09/27 02:17:32;;;;;;;24.88;17.75;;;;;;;;;;4961812;28;20120;-69
2021/09/27 02:20:06;;;;;;;20.90;16.17;;;;;;;;;;4960535;28;20054;-70
2021/09/27 02:22:58;;;;;;;21.30;15.18;;;;;;;;;;4993178;28;20065;-70
2021/09/27 02:25:34;;;;;;;21.57;16.07;;;;;;;;;;4971674;28;20085;-70
2021/09/27 02:28:04;;;;;;;21.25;15.30;;;;;;;;;;4960490;28;20058;-70
2021/09/27 02:30:48;;;;;;;18.35;15.13;;;;;;;;;;4960407;28;20054;-70
2021/09/27 02:33:30;;;;;;;21.17;16.10;;;;;;;;;;4974661;28;20074;-70
2021/09/27 02:36:00;;;;;;;22.88;16.60;;;;;;;;;;4976111;28;20050;-70
2021/09/27 02:38:33;;;;;;;20.73;15.90;;;;;;;;;;4975536;28;20047;-70
2021/09/27 02:41:27;;;;;;;23.83;16.63;;;;;;;;;;4992486;28;20058;-70
2021/09/27 02:43:54;;;;;;;;;;;;;;;;;;4975875;28;20058;-70
2021/09/27 02:46:22;;;;;;;20.85;16.13;;;;;;;;;;4992847;28;20010;-70
2021/09/27 02:48:57;;;;;;;19.83;15.75;;;;;;;;;;4975707;28;20054;-70
2021/09/27 02:51:25;;;;;;;21.02;15.93;;;;;;;;;;4992598;28;20493;-70
2021/09/27 02:53:52;;;;;;;18.17;15.05;;;;;;;;;;4975426;28;20050;-70
2021/09/27 02:56:29;;;;;;;21.52;15.23;;;;;;;;;;4992658;28;20058;-70
2021/09/27 02:59:23;;;;;;;20.40;15.73;;;;;;;;;;4975694;28;20050;-70
2021/09/27 03:01:51;;;;;;;20.65;16.05;;;;;;;;;;4992235;28;20054;-70
2021/09/27 03:04:28;;;;;;;20.70;15.45;;;;;;;;;;4992184;28;20414;-70
2021/09/27 03:07:03;;;;;;;18.33;14.75;;;;;;;;;;4959795;28;20061;-70
2021/09/27 03:09:41;;;;;;;19.13;15.05;;;;;;;;;;4992577;28;20056;-69
2021/09/27 03:12:46;;;;;;;20.08;15.63;;;;;;;;;;4975353;28;20054;-70
2021/09/27 03:15:58;;;;;;;18.17;14.27;;;;;;;;;;4894196;29;20104;-69
2021/09/27 03:19:02;;;;;;;19.73;16.30;;;;;;;;;;4880564;29;20139;-69
2021/09/27 03:21:37;;;;;;;18.95;14.68;;;;;;;;;;4992342;28;20050;-69
2021/09/27 03:24:15;;;;;;;20.05;15.20;;;;;;;;;;4992234;28;20054;-70
2021/09/27 03:27:01;;;;;;;18.35;14.00;;;;;;;;;;4955974;28;20058;-70
2021/09/27 03:29:30;;;;;;;16.90;13.07;;;;;;;;;;4973017;28;20125;-70
2021/09/27 03:32:15;;;;;;;19.63;14.85;;;;;;;;;;4972739;28;20051;-69
2021/09/27 03:35:06;;;;;;;18.80;14.30;;;;;;;;;;4973037;28;20465;-70
2021/09/27 03:38:12;;;;;;;19.20;15.27;;;;;;;;;;4972835;28;20110;-70
2021/09/27 03:40:52;;;;;;;16.27;13.25;;;;;;;;;;4955977;28;20106;-70
2021/09/27 03:43:25;;;;;;;18.80;13.98;;;;;;;;;;4957026;28;20494;-70
2021/09/27 03:45:55;;;;;;;18.02;13.77;;;;;;;;;;4972552;28;20101;-70
2021/09/27 03:48:29;;;;;;;17.15;13.70;;;;;;;;;;4996083;28;20141;-70
2021/09/27 03:51:03;;;;;;;15.27;13.15;;;;;;;;;;4979365;28;20054;-70
2021/09/27 03:53:41;;;;;;;17.60;13.50;;;;;;;;;;4963027;28;20058;-70
2021/09/27 03:56:26;;;;;;;17.58;14.18;;;;;;;;;;4978638;28;20471;-70
2021/09/27 03:59:27;;;;;;;17.38;12.88;;;;;;;;;;4976394;28;20043;-70
2021/09/27 04:02:34;;;;;;;17.80;13.02;;;;;;;;;;4945149;28;20058;-70
2021/09/27 04:05:17;;;;;;;17.27;13.23;;;;;;;;;;4965545;28;20576;-70
2021/09/27 04:07:46;;;;;;;19.65;14.70;;;;;;;;;;4995738;28;20104;-70
2021/09/27 04:10:41;;;;;;;14.30;12.23;;;;;;;;;;4995817;28;20053;-70
2021/09/27 04:13:32;;;;;;;16.52;13.25;;;;;;;;;;4980955;28;20058;-70
2021/09/27 04:16:26;;;;;;;17.48;12.98;;;;;;;;;;4995544;28;20505;-70
2021/09/27 04:19:10;;;;;;;;;;;;;;;;;;4981476;28;20051;-70
2021/09/27 04:21:51;;;;;;;16.85;13.38;;;;;;;;;;4978111;28;19976;-70
2021/09/27 04:24:49;;;;;;;16.98;13.57;;;;;;;;;;4978212;28;20062;-70
2021/09/27 04:27:44;;;;;;;20.92;15.18;;;;;;;;;;4995246;28;20052;-69
2021/09/27 04:30:25;;;;;;;16.23;13.02;;;;;;;;;;4995427;28;20417;-70
2021/09/27 04:33:04;;;;;;;16.13;13.63;;;;;;;;;;4977703;28;20050;-70
2021/09/27 04:35:53;;;;;;;17.73;14.07;;;;;;;;;;4995424;28;20054;-70
2021/09/27 04:38:19;;;;;;;16.90;13.20;;;;;;;;;;4963257;28;20050;-70
2021/09/27 04:41:23;;;;;;;16.30;13.02;;;;;;;;;;4978039;28;20054;-70
2021/09/27 04:44:04;;;;;;;17.88;14.38;;;;;;;;;;4995052;28;20054;-71
2021/09/27 04:46:44;;;;;;;17.65;13.95;;;;;;;;;;4994985;28;20080;-70
2021/09/27 04:49:31;;;;;;;16.88;13.65;;;;;;;;;;4977868;28;20050;-70
2021/09/27 04:52:08;;;;;;;17.38;13.57;;;;;;;;;;4977675;28;20572;-70
2021/09/27 04:54:53;;;;;;;18.17;14.55;;;;;;;;;;4961948;28;20085;-69
2021/09/27 04:57:28;;;;;;;27.15;13.70;;;;;;;;;;4995067;28;20050;-69
2021/09/27 05:00:17;;;;;;;20.75;13.77;;;;;;;;;;4977387;28;20556;-69
2021/09/27 05:03:14;;;;;;;24.88;15.85;;;;;;;;;;4977317;28;20054;-69
2021/09/27 05:05:52;;;;;;;19.35;14.40;;;;;;;;;;4977406;28;20050;-70
2021/09/27 05:08:31;;;;;;;22.35;14.85;;;;;;;;;;4994805;28;20395;-70
2021/09/27 05:11:13;;;;;;;23.55;15.73;;;;;;;;;;4994689;28;20089;-69
2021/09/27 05:13:54;;;;;;;25.63;15.93;;;;;;;;;;4977360;28;20116;-70
2021/09/27 05:16:26;;;;;;;23.48;16.27;;;;;;;;;;4994534;28;20050;-69
2021/09/27 05:19:24;;;;;;;28.08;16.13;;;;;;;;;;4989522;28;20082;-70
2021/09/27 05:21:55;;;;;;;33.03;17.83;;;;;;;;;;4993981;28;20054;-69
2021/09/27 05:24:39;;;;;;;24.85;16.67;;;;;;;;;;4977105;28;20113;-70
2021/09/27 05:27:37;;;;;;;24.35;16.23;;;;;;;;;;4976759;28;20105;-70
2021/09/27 05:30:26;;;;;;;24.70;15.52;;;;;;;;;;4977068;28;20088;-70
2021/09/27 05:33:14;;;;;;;27.20;14.88;;;;;;;;;;4976892;28;20050;-70
2021/09/27 05:35:44;;;;;;;23.15;15.40;;;;;;;;;;4976942;28;20116;-70
2021/09/27 05:38:27;;;;;;;26.70;15.00;;;;;;;;;;4976897;28;20133;-70
2021/09/27 05:41:08;;;;;;;24.45;14.80;;;;;;;;;;4976847;28;20090;-70
2021/09/27 05:44:13;;;;;;;22.38;14.52;;;;;;;;;;4993716;28;20050;-70
2021/09/27 05:46:48;;;;;;;19.50;14.77;;;;;;;;;;4994034;28;20497;-70
2021/09/27 05:49:26;;;;;;;18.67;13.82;;;;;;;;;;4993426;28;20046;-70
2021/09/27 05:51:57;;;;;;;21.60;14.85;;;;;;;;;;4976172;28;20058;-70
2021/09/27 05:54:42;;;;;;;23.63;15.55;;;;;;;;;;4976867;28;20050;-72
2021/09/27 05:57:15;;;;;;;21.65;15.63;;;;;;;;;;4977501;28;20054;-70
2021/09/27 05:59:42;;;;;;;;;;;;;;;;;;4977104;28;20124;-70
2021/09/27 06:02:29;;;;;;;21.70;15.45;;;;;;;;;;4992276;28;19926;-70
2021/09/27 06:05:10;;;;;;;20.35;14.75;;;;;;;;;;4975313;28;20050;-69
2021/09/27 06:07:59;;;;;;;23.25;15.90;;;;;;;;;;4992162;28;20050;-70
2021/09/27 06:10:30;;;;;;;23.52;16.13;;;;;;;;;;4972938;28;20046;-70
2021/09/27 06:13:32;;;;;;;23.92;15.57;;;;;;;;;;4972943;28;20050;-68
2021/09/27 06:16:09;;;;;;;25.92;16.40;;;;;;;;;;4990150;28;20684;-68
2021/09/27 06:19:06;;;;;;;26.23;17.08;;;;;;;;;;4972140;28;20062;-68
2021/09/27 06:21:55;;;;;;;23.92;16.88;;;;;;;;;;4972188;28;20088;-68
2021/09/27 06:24:43;;;;;;;26.88;16.27;;;;;;;;;;4973993;28;20124;-68
2021/09/27 06:27:34;;;;;;;24.90;16.50;;;;;;;;;;4991380;28;20050;-68
2021/09/27 06:30:19;;;;;;;25.65;17.38;;;;;;;;;;4991082;28;20050;-67
2021/09/27 06:33:37;;;;;;;26.48;18.45;;;;;;;;;;4973327;28;20089;-68
2021/09/27 06:36:11;;;;;;;22.67;16.55;;;;;;;;;;4949922;28;20151;-70
2021/09/27 06:38:38;;;;;;;22.02;16.10;;;;;;;;;;4974833;28;20460;-68
2021/09/27 06:41:07;;;;;;;22.95;15.68;;;;;;;;;;4973981;28;20460;-68
2021/09/27 06:43:34;;;;;;;22.77;15.27;;;;;;;;;;4958086;28;20058;-69
2021/09/27 06:46:01;;;;;;;22.33;15.82;;;;;;;;;;4991046;28;20066;-68
2021/09/27 06:48:28;;;;;;;21.75;15.77;;;;;;;;;;4990797;28;20050;-69
2021/09/27 06:50:55;;;;;;;22.50;15.15;;;;;;;;;;4990851;28;20561;-68
2021/09/27 06:53:24;;;;;;;21.20;14.98;;;;;;;;;;4990403;28;20568;-69
2021/09/27 06:55:55;;;;;;;22.73;14.93;;;;;;;;;;4990925;28;20052;-69
2021/09/27 06:58:23;;;;;;;20.27;14.75;;;;;;;;;;4990651;28;20109;-68
2021/09/27 07:00:51;;;;;;;19.42;14.63;;;;;;;;;;4989396;28;20050;-69
2021/09/27 07:03:18;;;;;;;20.30;15.00;;;;;;;;;;4989639;28;20181;-69
2021/09/27 07:05:44;;;;;;;18.92;14.65;;;;;;;;;;4990206;28;20134;-69
2021/09/27 07:08:11;;;;;;;21.67;13.85;;;;;;;;;;4982475;28;20584;-70
2021/09/27 07:10:39;;;;;;;20.25;14.02;;;;;;;;;;4987728;28;20097;-70
2021/09/27 07:13:06;;;;;;;21.75;14.70;;;;;;;;;;4971084;28;20563;-69
2021/09/27 07:15:32;;;;;;;19.73;14.50;;;;;;;;;;4988566;28;20092;-69
2021/09/27 07:17:59;;;;;;;22.10;15.65;;;;;;;;;;4989308;28;20054;-69
2021/09/27 07:20:27;;;;;;;17.45;14.05;;;;;;;;;;4990230;28;20054;-69
2021/09/27 07:22:55;;;;;;;19.40;14.02;;;;;;;;;;4989915;28;20046;-69
2021/09/27 07:25:23;;;;;;;23.95;14.40;;;;;;;;;;4990463;28;20062;-69
2021/09/27 07:27:50;;;;;;;18.73;14.38;;;;;;;;;;4990181;28;20050;-69
2021/09/27 07:30:17;;;;;;;19.55;13.00;;;;;;;;;;4990412;28;20108;-69
2021/09/27 07:32:44;;;;;;;19.02;14.07;;;;;;;;;;4989783;28;20413;-69
2021/09/27 07:35:14;;;;;;;18.23;13.35;;;;;;;;;;4962433;28;20059;-70
2021/09/27 07:37:41;;;;;;;17.13;13.45;;;;;;;;;;4984450;28;20054;-73
2021/09/27 07:40:10;;;;;;;18.13;14.32;;;;;;;;;;4963596;28;20056;-69
2021/09/27 07:42:37;;;;;;;18.42;13.63;;;;;;;;;;4979662;28;20054;-70
2021/09/27 07:45:07;;;;;;;15.52;11.52;;;;;;;;;;4976162;28;20050;-71
2021/09/27 07:47:33;;;;;;;13.80;9.75;;;;;;;;;;4962955;28;20051;-72
2021/09/27 07:50:00;;;;;;;13.32;10.52;;;;;;;;;;4981574;28;20494;-70
2021/09/27 07:52:27;;;;;;;15.10;10.45;;;;;;;;;;4981062;28;20051;-69
2021/09/27 07:54:53;;;;;;;17.20;11.30;;;;;;;;;;4980049;28;20050;-69
2021/09/27 07:57:20;;;;;;;12.63;10.85;;;;;;;;;;4979876;28;20051;-69
2021/09/27 07:59:48;;;;;;;11.23;9.90;;;;;;;;;;4977201;28;20537;-68
2021/09/27 08:02:18;;;;;;;11.15;9.75;;;;;;;;;;4983000;28;20463;-68
2021/09/27 08:04:45;;;;;;;12.40;9.27;;;;;;;;;;4985128;28;20505;-68
2021/09/27 08:07:12;;;;;;;10.65;9.55;;;;;;;;;;4978808;28;20062;-67
2021/09/27 08:09:39;;;;;;;14.70;10.20;;;;;;;;;;4976695;28;20058;-69
2021/09/27 08:12:06;;;;;;;14.00;9.43;;;;;;;;;;4977050;28;20101;-70
2021/09/27 08:14:33;;;;;;;14.75;10.10;;;;;;;;;;4977857;28;20097;-68
2021/09/27 08:16:59;;;;;;;11.93;9.63;;;;;;;;;;4960862;28;20047;-69
2021/09/27 08:19:26;;;;;;;12.65;9.07;;;;;;;;;;4979527;28;20058;-69
2021/09/27 08:21:53;;;;;;;11.10;8.85;;;;;;;;;;4963647;28;20059;-69
2021/09/27 08:24:19;;;;;;;15.70;10.30;;;;;;;;;;4980465;28;20047;-68
2021/09/27 08:26:46;;;;;;;11.95;9.80;;;;;;;;;;4977416;28;20054;-68
2021/09/27 08:29:13;;;;;;;12.05;9.27;;;;;;;;;;4976958;28;20043;-68
2021/09/27 08:31:42;;;;;;;10.10;8.20;;;;;;;;;;4981165;28;20058;-68
2021/09/27 08:34:09;;;;;;;10.23;8.60;;;;;;;;;;4982720;28;20117;-68
2021/09/27 08:36:36;;;;;;;10.20;9.02;;;;;;;;;;4981050;28;20055;-68
2021/09/27 08:39:03;;;;;;;11.68;9.13;;;;;;;;;;4983962;28;20124;-68
2021/09/27 08:41:53;;;;;;;8.85;7.28;;;;;;;;;;4982799;28;20461;-69
2021/09/27 08:44:42;;;;;;;10.80;7.47;;;;;;;;;;4980894;28;20105;-68
2021/09/27 08:47:16;;;;;;;11.13;8.05;;;;;;;;;;4978760;28;20399;-68
2021/09/27 08:49:49;;;;;;;9.55;7.05;;;;;;;;;;4967627;28;20057;-68
2021/09/27 08:52:17;;;;;;;;;;;;;;;;;;4982087;28;20115;-68
2021/09/27 08:54:45;;;;;;;9.95;7.32;;;;;;;;;;4981116;28;20035;-68
2021/09/27 08:57:21;;;;;;;11.43;7.65;;;;;;;;;;4979675;28;20054;-68
2021/09/27 09:00:09;;;;;;;8.55;6.65;;;;;;;;;;4980761;28;20526;-70
2021/09/27 09:03:07;;;;;;;7.03;6.03;;;;;;;;;;4980231;28;20051;-69
2021/09/27 09:05:44;;;;;;;8.02;5.60;;;;;;;;;;4967737;28;20663;-68
2021/09/27 09:08:34;;;;;;;8.52;6.05;;;;;;;;;;4981517;28;20499;-68
2021/09/27 09:11:25;;;;;;;8.55;5.85;;;;;;;;;;4951779;28;20391;-68
2021/09/27 09:13:57;;;;;;;7.05;6.32;;;;;;;;;;4948483;28;20485;-69
2021/09/27 09:16:24;;;;;;;6.35;5.50;;;;;;;;;;4980379;28;20407;-69
2021/09/27 09:18:54;;;;;;;8.32;6.20;;;;;;;;;;4965608;28;20049;-69
2021/09/27 09:21:37;;;;;;;9.98;6.60;;;;;;;;;;4982111;28;20054;-69
2021/09/27 09:24:10;;;;;;;4.93;4.20;;;;;;;;;;4979196;28;20051;-69
2021/09/27 09:26:40;;;;;;;6.03;3.65;;;;;;;;;;4948653;28;20051;-69
2021/09/27 09:29:21;;;;;;;7.28;4.65;;;;;;;;;;4980117;28;20493;-69
2021/09/27 09:31:54;;;;;;;6.15;3.88;;;;;;;;;;4980953;28;20051;-69
2021/09/27 09:34:20;;;;;;;4.88;4.38;;;;;;;;;;4950274;28;20054;-69
2021/09/27 09:36:52;;;;;;;6.68;4.18;;;;;;;;;;4981372;28;20050;-68
2021/09/27 09:39:31;;;;;;;4.05;3.65;;;;;;;;;;4982024;28;20058;-69
2021/09/27 09:42:04;;;;;;;5.30;3.58;;;;;;;;;;4982177;28;20132;-68
2021/09/27 09:44:33;;;;;;;6.75;3.50;;;;;;;;;;4981312;28;20046;-68
2021/09/27 09:47:04;;;;;;;4.18;3.00;;;;;;;;;;4979702;28;20055;-68
2021/09/27 09:49:52;;;;;;;4.05;3.20;;;;;;;;;;4983933;28;20054;-68
2021/09/27 09:52:43;;;;;;;4.93;3.28;;;;;;;;;;4981587;28;20391;-71
2021/09/27 09:55:31;;;;;;;3.50;3.00;;;;;;;;;;4982743;28;20055;-68
2021/09/27 09:58:12;;;;;;;4.80;3.50;;;;;;;;;;4981825;28;20050;-68
2021/09/27 10:00:51;;;;;;;4.47;3.38;;;;;;;;;;4964775;28;20640;-68
2021/09/27 10:03:39;;;;;;;4.13;3.05;;;;;;;;;;4980384;28;20425;-68
2021/09/27 10:06:37;;;;;;;6.50;3.17;;;;;;;;;;4980149;28;20047;-68
2021/09/27 10:09:08;;;;;;;4.35;2.72;;;;;;;;;;4949746;28;20038;-68
2021/09/27 10:11:37;;;;;;;6.20;3.03;;;;;;;;;;4962850;28;20505;-69
2021/09/27 10:14:34;;;;;;;3.00;2.50;;;;;;;;;;4961523;28;20051;-69
2021/09/27 10:17:03;;;;;;;4.30;2.60;;;;;;;;;;4984271;28;20067;-68
2021/09/27 10:19:33;;;;;;;7.75;2.40;;;;;;;;;;4981618;28;20093;-69
2021/09/27 10:22:13;;;;;;;3.83;2.50;;;;;;;;;;4981350;28;20112;-68
2021/09/27 10:24:54;;;;;;;2.88;2.58;;;;;;;;;;4982220;28;20054;-68
2021/09/27 10:27:50;;;;;;;2.78;2.53;;;;;;;;;;4963485;28;20054;-68
2021/09/27 10:30:22;;;;;;;3.63;2.40;;;;;;;;;;4977963;28;20073;-68
2021/09/27 10:32:55;;;;;;;6.87;2.83;;;;;;;;;;4978995;28;20101;-68
2021/09/27 10:35:40;;;;;;;3.78;2.90;;;;;;;;;;4978509;28;20117;-68
2021/09/27 10:38:12;;;;;;;3.95;3.05;;;;;;;;;;4981854;28;20100;-68
2021/09/27 10:40:40;;;;;;;4.10;3.13;;;;;;;;;;4965024;28;20470;-68
2021/09/27 10:43:11;;;;;;;3.50;2.72;;;;;;;;;;4965435;28;20052;-66
2021/09/27 10:45:40;;;;;;;3.95;2.60;;;;;;;;;;4966148;28;20415;-68
2021/09/27 10:48:07;;;;;;;4.28;2.97;;;;;;;;;;4986164;28;20552;-68
2021/09/27 10:50:39;;;;;;;2.63;2.42;;;;;;;;;;4980499;28;20048;-66
2021/09/27 10:53:21;;;;;;;4.32;2.67;;;;;;;;;;4969159;28;20542;-68
2021/09/27 10:55:56;;;;;;;2.92;2.63;;;;;;;;;;4981433;28;20057;-67
2021/09/27 10:59:03;;;;;;;5.10;2.85;;;;;;;;;;4966889;28;20054;-68
2021/09/27 11:01:35;;;;;;;3.85;2.83;;;;;;;;;;4986608;28;20573;-67
2021/09/27 11:04:02;;;;;;;;;;;;;;;;;;4987025;28;20050;-67
2021/09/27 11:06:44;;;;;;;3.00;2.75;;;;;;;;;;4970884;28;19925;-66
2021/09/27 11:09:27;;;;;;;4.80;2.80;;;;;;;;;;4970767;28;20058;-68
2021/09/27 11:12:03;;;;;;;2.80;2.53;;;;;;;;;;4971431;28;20054;-67
2021/09/27 11:14:40;;;;;;;3.35;2.42;;;;;;;;;;4986412;28;20051;-68
2021/09/27 11:17:07;;;;;;;2.40;2.20;;;;;;;;;;4970698;28;20105;-67
2021/09/27 11:19:34;;;;;;;3.83;2.40;;;;;;;;;;4987084;28;20544;-68
2021/09/27 11:22:12;;;;;;;3.20;2.90;;;;;;;;;;4988289;28;20058;-68
2021/09/27 11:24:42;;;;;;;3.33;2.28;;;;;;;;;;4987795;28;20055;-68
2021/09/27 11:27:17;;;;;;;3.00;2.65;;;;;;;;;;4985818;28;20050;-68
2021/09/27 11:29:58;;;;;;;3.80;2.40;;;;;;;;;;4987013;28;20493;-68
2021/09/27 11:32:36;;;;;;;2.63;2.25;;;;;;;;;;4957370;28;20399;-68
2021/09/27 11:35:09;;;;;;;2.97;2.67;;;;;;;;;;4987885;28;20569;-70
2021/09/27 11:38:07;;;;;;;3.25;2.17;;;;;;;;;;4987069;28;20054;-68
2021/09/27 11:40:39;;;;;;;3.88;2.45;;;;;;;;;;4987597;28;20666;-68
2021/09/27 11:43:21;;;;;;;2.40;2.20;;;;;;;;;;4987063;28;20116;-68
2021/09/27 11:45:50;;;;;;;2.97;2.03;;;;;;;;;;4986721;28;20104;-69
2021/09/27 11:48:17;;;;;;;3.28;2.35;;;;;;;;;;4988275;28;20297;-69
2021/09/27 11:50:53;;;;;;;4.85;2.58;;;;;;;;;;4989184;28;20047;-68
2021/09/27 11:53:41;;;;;;;4.57;2.17;;;;;;;;;;4969685;28;20520;-69
2021/09/27 11:56:20;;;;;;;3.17;2.50;;;;;;;;;;4968400;28;20472;-69
2021/09/27 11:59:28;;;;;;;3.17;2.33;;;;;;;;;;4970117;28;20521;-69
2021/09/27 12:02:33;;;;;;;3.63;2.70;;;;;;;;;;4958224;28;20421;-68
2021/09/27 12:05:10;;;;;;;3.05;2.45;;;;;;;;;;4987413;28;20050;-69
2021/09/27 12:08:02;;;;;;;5.30;2.70;;;;;;;;;;4989738;28;20051;-68
2021/09/27 12:10:53;;;;;;;3.50;2.88;;;;;;;;;;4966453;28;20050;-69
2021/09/27 12:13:25;;;;;;;2.55;2.35;;;;;;;;;;4974127;28;20050;-69
2021/09/27 12:15:59;;;;;;;2.95;2.47;;;;;;;;;;4991814;28;20462;-69
2021/09/27 12:18:44;;;;;;;2.83;2.50;;;;;;;;;;4991621;28;20125;-69
2021/09/27 12:21:13;;;;;;;7.70;2.17;;;;;;;;;;4989215;28;20046;-68
2021/09/27 12:23:48;;;;;;;6.40;2.20;;;;;;;;;;4991727;28;20082;-68
2021/09/27 12:26:17;;;;;;;6.10;2.10;;;;;;;;;;4990232;28;20051;-68
2021/09/27 12:28:44;;;;;;;2.42;2.22;;;;;;;;;;4991252;28;20469;-68
2021/09/27 12:31:11;;;;;;;3.03;2.17;;;;;;;;;;4990831;28;20410;-69
2021/09/27 12:33:39;;;;;;;3.75;1.70;;;;;;;;;;4989522;28;20421;-69
2021/09/27 12:36:11;;;;;;;2.63;1.90;;;;;;;;;;4992201;28;20477;-70
2021/09/27 12:38:51;;;;;;;5.05;1.90;;;;;;;;;;4990996;28;20054;-68
2021/09/27 12:41:19;;;;;;;2.28;2.08;;;;;;;;;;4971037;28;20069;-70
2021/09/27 12:43:46;;;;;;;2.38;1.98;;;;;;;;;;4972237;28;20133;-68
2021/09/27 12:46:20;;;;;;;2.08;1.75;;;;;;;;;;4957445;28;20050;-69
2021/09/27 12:49:00;;;;;;;1.70;1.60;;;;;;;;;;4972024;28;20409;-68
2021/09/27 12:51:49;;;;;;;2.45;1.75;;;;;;;;;;4970999;28;20046;-69
2021/09/27 12:54:23;;;;;;;2.00;1.80;;;;;;;;;;4971099;28;20057;-68
2021/09/27 12:56:51;;;;;;;1.88;1.60;;;;;;;;;;4987376;28;20046;-69
2021/09/27 12:59:19;;;;;;;3.13;2.05;;;;;;;;;;4971812;28;20050;-68
2021/09/27 13:01:52;;;;;;;3.95;2.15;;;;;;;;;;4969387;28;20596;-70
2021/09/27 13:04:26;;;;;;;4.45;1.90;;;;;;;;;;4985432;28;20105;-66
2021/09/27 13:07:06;;;;;;;2.67;1.55;;;;;;;;;;4986174;28;20057;-68
2021/09/27 13:09:38;;;;;;;1.88;1.77;;;;;;;;;;4987115;28;20046;-67
2021/09/27 13:12:14;;;;;;;7.78;1.63;;;;;;;;;;4970422;28;20659;-67
2021/09/27 13:14:45;;;;;;;4.97;2.00;;;;;;;;;;4987459;28;20057;-69
2021/09/27 13:17:17;;;;;;;3.30;1.70;;;;;;;;;;4986909;28;20051;-68
2021/09/27 13:19:50;;;;;;;2.83;1.85;;;;;;;;;;4982961;28;20090;-70
2021/09/27 13:22:43;;;;;;;4.55;2.10;;;;;;;;;;4969346;28;20054;-70
2021/09/27 13:25:28;;;;;;;1.70;1.60;;;;;;;;;;4967621;28;20525;-69
2021/09/27 13:28:14;;;;;;;2.25;1.85;;;;;;;;;;4965819;28;20501;-70
2021/09/27 13:30:41;;;;;;;2.63;2.08;;;;;;;;;;4971693;28;20058;-69
2021/09/27 13:33:36;;;;;;;3.03;1.70;;;;;;;;;;4985511;28;20503;-70
2021/09/27 13:36:09;;;;;;;1.92;1.70;;;;;;;;;;4987464;28;20042;-70
2021/09/27 13:38:39;;;;;;;1.85;1.75;;;;;;;;;;4989345;28;20145;-70
2021/09/27 13:41:25;;;;;;;4.07;2.40;;;;;;;;;;4988378;28;20101;-69
2021/09/27 13:43:58;;;;;;;4.82;2.08;;;;;;;;;;4990561;28;20498;-70
2021/09/27 13:46:28;;;;;;;2.70;2.20;;;;;;;;;;4987760;28;20089;-69
2021/09/27 13:48:56;;;;;;;4.05;2.20;;;;;;;;;;4991166;28;20047;-70
2021/09/27 13:51:25;;;;;;;5.25;2.72;;;;;;;;;;4988990;28;20050;-71
2021/09/27 13:53:58;;;;;;;4.75;2.15;;;;;;;;;;4987838;28;20046;-73
2021/09/27 13:56:31;;;;;;;2.85;2.55;;;;;;;;;;4957500;28;20054;-71
2021/09/27 13:59:00;;;;;;;2.90;2.15;;;;;;;;;;4972416;28;20417;-67
2021/09/27 14:01:27;;;;;;;2.90;2.35;;;;;;;;;;4983691;28;20050;-68
2021/09/27 14:03:54;;;;;;;3.63;2.67;;;;;;;;;;4988486;28;20081;-68
2021/09/27 14:06:23;;;;;;;2.90;2.15;;;;;;;;;;4989625;28;20054;-68
2021/09/27 14:08:50;;;;;;;3.53;2.45;;;;;;;;;;4973051;28;20054;-70
2021/09/27 14:11:17;;;;;;;3.70;2.20;;;;;;;;;;4986049;28;20053;-68
2021/09/27 14:13:46;;;;;;;3.80;2.17;;;;;;;;;;4987107;28;20326;-68
2021/09/27 14:16:15;;;;;;;2.75;2.35;;;;;;;;;;4987107;28;20054;-68
2021/09/27 14:18:46;;;;;;;3.80;2.45;;;;;;;;;;4971974;28;20050;-68
2021/09/27 14:21:13;;;;;;;2.38;1.98;;;;;;;;;;4985042;28;20042;-68
2021/09/27 14:23:43;;;;;;;3.88;2.45;;;;;;;;;;4985097;28;20057;-71
2021/09/27 14:26:10;;;;;;;3.05;2.40;;;;;;;;;;4986974;28;20050;-69
2021/09/27 14:28:37;;;;;;;2.25;2.05;;;;;;;;;;4987652;28;20046;-69
2021/09/27 14:31:07;;;;;;;3.47;2.17;;;;;;;;;;4990408;28;20100;-72
2021/09/27 14:33:38;;;;;;;4.90;2.60;;;;;;;;;;4986552;28;20097;-71
2021/09/27 14:36:06;;;;;;;4.13;2.10;;;;;;;;;;4988043;28;20049;-71
2021/09/27 14:38:33;;;;;;;5.07;2.55;;;;;;;;;;4987279;28;20055;-74
2021/09/27 14:41:00;;;;;;;5.07;2.30;;;;;;;;;;4954652;28;20046;-70
2021/09/27 14:43:27;;;;;;;2.78;2.40;;;;;;;;;;4987744;28;20050;-75
2021/09/27 14:45:55;;;;;;;4.28;2.45;;;;;;;;;;4984915;28;20057;-71
2021/09/27 14:48:22;;;;;;;2.80;2.42;;;;;;;;;;4972543;28;20050;-71
2021/09/27 14:50:52;;;;;;;3.80;2.80;;;;;;;;;;4989700;28;20046;-69
2021/09/27 14:53:21;;;;;;;3.70;2.40;;;;;;;;;;4991020;28;20050;-70
2021/09/27 14:55:50;;;;;;;6.55;3.00;;;;;;;;;;4971307;28;20050;-70
2021/09/27 14:58:19;;;;;;;3.45;2.55;;;;;;;;;;4989918;28;20054;-69
2021/09/27 15:00:48;;;;;;;2.35;2.00;;;;;;;;;;4982748;28;20208;-72
2021/09/27 15:03:16;;;;;;;2.85;2.20;;;;;;;;;;4983426;28;20055;-69
2021/09/27 15:05:42;;;;;;;2.25;2.05;;;;;;;;;;4975009;28;20050;-69
2021/09/27 15:08:09;;;;;;;3.60;2.20;;;;;;;;;;4979093;28;20054;-70
2021/09/27 15:10:37;;;;;;;3.63;2.25;;;;;;;;;;4977766;28;20050;-69
2021/09/27 15:13:10;;;;;;;2.78;2.42;;;;;;;;;;4977994;28;20054;-70
2021/09/27 15:15:37;;;;;;;3.25;2.53;;;;;;;;;;4980969;28;20563;-69
2021/09/27 15:18:03;;;;;;;3.22;2.25;;;;;;;;;;4979393;28;20153;-71
2021/09/27 15:20:31;;;;;;;3.88;2.25;;;;;;;;;;4962005;28;20073;-69
2021/09/27 15:23:05;;;;;;;4.78;1.92;;;;;;;;;;4981050;28;20055;-72